Time;durP1;ratioP1;P1;durP2;ratioP2;P2;SDS_P1;SDS_P2;PMS_P1;PMS_P2;Temp;Humidity;BMP_temperature;BMP_pressure;BME280_temperature;BME280_humidity;BME280_pressure;Samples;Min_cycle;Max_cycle;Signal;HPM_P1;HPM_P2
2023/02/24 00:01:51;;;;;;;7.60;6.10;;;;;;;;;;105829;1250;61292;-66
2023/02/24 00:04:20;;;;;;;9.10;6.30;;;;;;;;;;105673;1252;61650;-66
2023/02/24 00:06:48;;;;;;;6.60;5.70;;;;;;;;;;105248;1251;61710;-65
2023/02/24 00:09:18;;;;;;;8.20;6.00;;;;;;;;;;105370;1266;61085;-65
2023/02/24 00:11:47;;;;;;;8.30;6.50;;;;;;;;;;105414;1253;61446;-66
2023/02/24 00:14:15;;;;;;;7.40;5.70;;;;;;;;;;105461;1248;61605;-66
2023/02/24 00:16:44;;;;;;;7.90;5.90;;;;;;;;;;105223;1250;62140;-66
2023/02/24 00:19:15;;;;;;;8.60;5.90;;;;;;;;;;105424;1253;61683;-65
2023/02/24 00:21:43;;;;;;;7.30;6.10;;;;;;;;;;105383;1246;61781;-66
2023/02/24 00:24:12;;;;;;;8.00;6.20;;;;;;;;;;105409;1253;61554;-65
2023/02/24 00:26:40;;;;;;;7.10;5.80;;;;;;;;;;105351;1252;61663;-66
2023/02/24 00:29:09;;;;;;;6.80;5.80;;;;;;;;;;105492;1249;61695;-65
2023/02/24 00:31:41;;;;;;;8.40;6.00;;;;;;;;;;105360;1246;61637;-65
2023/02/24 00:34:11;;;;;;;7.60;5.70;;;;;;;;;;105390;1261;61681;-65
2023/02/24 00:36:40;;;;;;;6.00;5.40;;;;;;;;;;105027;1252;61459;-66
2023/02/24 00:39:10;;;;;;;7.30;5.90;;;;;;;;;;105523;1254;61568;-63
2023/02/24 00:41:40;;;;;;;8.20;6.00;;;;;;;;;;105058;1253;61719;-64
2023/02/24 00:44:11;;;;;;;7.00;5.60;;;;;;;;;;105332;1263;61436;-65
2023/02/24 00:46:40;;;;;;;6.60;5.30;;;;;;;;;;105140;1247;61710;-65
2023/02/24 00:49:11;;;;;;;6.90;5.40;;;;;;;;;;105429;1247;61605;-65
2023/02/24 00:51:40;;;;;;;6.70;6.00;;;;;;;;;;105050;1263;60988;-66
2023/02/24 00:54:13;;;;;;;7.50;6.00;;;;;;;;;;105295;1270;61782;-68
2023/02/24 00:56:42;;;;;;;6.60;5.00;;;;;;;;;;105270;1249;61714;-65
2023/02/24 00:59:12;;;;;;;8.00;6.00;;;;;;;;;;105026;1254;61657;-66
2023/02/24 01:01:40;;;;;;;7.50;5.30;;;;;;;;;;105334;1248;61701;-65
2023/02/24 01:04:12;;;;;;;6.40;5.60;;;;;;;;;;105061;1266;61603;-65
2023/02/24 01:06:42;;;;;;;8.60;5.90;;;;;;;;;;105190;1248;63434;-65
2023/02/24 01:09:11;;;;;;;7.10;6.30;;;;;;;;;;105318;1252;61759;-65
2023/02/24 01:14:31;;;;;;;7.60;5.90;;;;;;;;;;105214;1252;61776;-65
2023/02/24 01:16:59;;;;;;;7.60;6.30;;;;;;;;;;105359;1250;61683;-65
2023/02/24 01:19:29;;;;;;;6.60;5.80;;;;;;;;;;105323;1257;61690;-65
2023/02/24 01:22:00;;;;;;;6.70;5.50;;;;;;;;;;105317;1263;61692;-65
2023/02/24 01:24:34;;;;;;;7.10;5.90;;;;;;;;;;105173;1253;62030;-65
2023/02/24 01:27:03;;;;;;;6.60;5.80;;;;;;;;;;105384;1249;61695;-65
2023/02/24 01:29:38;;;;;;;7.30;6.10;;;;;;;;;;105373;1254;61779;-65
2023/02/24 01:32:11;;;;;;;7.80;5.80;;;;;;;;;;105450;1247;61698;-66
2023/02/24 01:34:41;;;;;;;7.50;5.60;;;;;;;;;;105257;1253;61633;-65
2023/02/24 01:37:09;;;;;;;6.10;5.30;;;;;;;;;;105238;1258;61701;-65
2023/02/24 01:39:38;;;;;;;6.60;5.60;;;;;;;;;;105418;1252;61729;-65
2023/02/24 01:42:06;;;;;;;7.70;5.70;;;;;;;;;;105107;1247;61772;-66
2023/02/24 01:44:34;;;;;;;7.70;6.00;;;;;;;;;;105177;1253;61601;-65
2023/02/24 01:47:03;;;;;;;9.40;6.50;;;;;;;;;;105067;1261;63746;-65
2023/02/24 01:49:53;;;;;;;7.40;6.10;;;;;;;;;;105394;1247;61688;-65
2023/02/24 01:52:22;;;;;;;6.30;5.60;;;;;;;;;;105169;1263;61756;-64
2023/02/24 01:54:56;;;;;;;6.90;6.00;;;;;;;;;;104934;1250;61680;-65
2023/02/24 01:57:26;;;;;;;9.20;6.50;;;;;;;;;;105105;1247;61683;-65
2023/02/24 01:59:56;;;;;;;6.40;5.50;;;;;;;;;;104923;1252;62136;-66
2023/02/24 02:02:25;;;;;;;7.90;7.00;;;;;;;;;;105088;1261;61194;-65
2023/02/24 02:04:58;;;;;;;9.10;6.40;;;;;;;;;;105339;1251;61694;-67
2023/02/24 02:07:30;;;;;;;8.60;6.50;;;;;;;;;;105330;1257;61572;-65
2023/02/24 02:10:05;;;;;;;6.30;5.20;;;;;;;;;;105407;1251;62371;-66
2023/02/24 02:12:37;;;;;;;7.70;6.10;;;;;;;;;;104943;1247;61691;-65
2023/02/24 02:15:06;;;;;;;9.00;6.00;;;;;;;;;;105358;1263;61723;-65
2023/02/24 02:17:35;;;;;;;8.20;6.50;;;;;;;;;;105413;1247;61774;-65
2023/02/24 02:20:14;;;;;;;11.20;6.50;;;;;;;;;;105411;1247;62289;-65
2023/02/24 02:23:03;;;;;;;8.40;7.00;;;;;;;;;;105289;1253;61784;-67
2023/02/24 02:25:34;;;;;;;6.90;6.10;;;;;;;;;;105375;1250;61642;-65
2023/02/24 02:28:09;;;;;;;8.90;6.80;;;;;;;;;;105379;1258;61669;-65
2023/02/24 02:30:56;;;;;;;9.20;6.60;;;;;;;;;;105342;1256;61682;-65
2023/02/24 02:33:42;;;;;;;8.50;6.80;;;;;;;;;;104978;1255;61680;-64
2023/02/24 02:36:13;;;;;;;10.30;7.00;;;;;;;;;;105342;1252;61775;-65
2023/02/24 02:38:50;;;;;;;8.50;7.10;;;;;;;;;;105015;1256;61952;-64
2023/02/24 02:41:23;;;;;;;9.60;6.60;;;;;;;;;;105344;1248;61692;-65
2023/02/24 02:43:55;;;;;;;9.10;6.70;;;;;;;;;;105345;1253;61434;-65
2023/02/24 02:46:33;;;;;;;9.30;6.60;;;;;;;;;;105331;1253;61896;-66
2023/02/24 02:49:09;;;;;;;9.40;7.40;;;;;;;;;;105087;1253;61856;-66
2023/02/24 02:51:43;;;;;;;10.00;7.00;;;;;;;;;;105316;1248;61676;-66
2023/02/24 02:54:14;;;;;;;9.50;7.90;;;;;;;;;;105140;1250;61706;-66
2023/02/24 02:58:25;;;;;;;9.50;7.30;;;;;;;;;;101898;1292;599813;-64
2023/02/24 03:01:15;;;;;;;9.20;6.70;;;;;;;;;;104242;1277;60176;-64
2023/02/24 03:03:45;;;;;;;8.40;6.70;;;;;;;;;;104179;1280;61529;-66
2023/02/24 03:06:23;;;;;;;10.10;7.30;;;;;;;;;;105010;1254;60483;-65
2023/02/24 03:09:10;;;;;;;8.90;7.00;;;;;;;;;;104947;1249;60275;-65
2023/02/24 03:11:38;;;;;;;8.60;6.80;;;;;;;;;;104687;1253;310007;-65
2023/02/24 03:14:10;;;;;;;7.40;6.20;;;;;;;;;;105168;1248;60255;-65
2023/02/24 03:16:39;;;;;;;8.90;6.90;;;;;;;;;;105281;1248;60156;-66
2023/02/24 03:19:07;;;;;;;8.50;6.60;;;;;;;;;;105434;1250;60284;-65
2023/02/24 03:21:38;;;;;;;8.60;6.50;;;;;;;;;;105351;1250;60261;-65
2023/02/24 03:24:07;;;;;;;7.30;6.10;;;;;;;;;;105345;1259;60881;-66
2023/02/24 03:26:36;;;;;;;7.40;6.30;;;;;;;;;;105383;1248;60835;-65
2023/02/24 03:29:06;;;;;;;8.20;6.60;;;;;;;;;;105346;1252;60726;-66
2023/02/24 03:31:38;;;;;;;9.60;7.20;;;;;;;;;;105740;1252;60805;-67
2023/02/24 03:34:09;;;;;;;9.00;7.10;;;;;;;;;;105367;1257;60817;-66
2023/02/24 03:36:41;;;;;;;8.20;6.50;;;;;;;;;;105050;1270;60365;-65
2023/02/24 03:39:11;;;;;;;8.70;6.50;;;;;;;;;;105419;1264;60874;-65
2023/02/24 03:42:08;;;;;;;8.40;7.20;;;;;;;;;;105322;1254;60869;-65
2023/02/24 03:44:37;;;;;;;9.30;6.80;;;;;;;;;;105319;1247;60810;-67
2023/02/24 03:47:13;;;;;;;7.50;6.30;;;;;;;;;;105206;1254;60895;-64
2023/02/24 03:49:42;;;;;;;8.10;6.90;;;;;;;;;;105187;1252;60815;-65
2023/02/24 03:52:20;;;;;;;8.20;6.70;;;;;;;;;;105366;1264;60729;-64
2023/02/24 03:55:08;;;;;;;7.70;6.80;;;;;;;;;;108735;1248;58778;-65
2023/02/24 03:57:36;;;;;;;;;;;;;;;;;;105478;1254;61614;-65
2023/02/24 04:00:33;;;;;;;7.70;6.50;;;;;;;;;;105209;1256;60854;-65
2023/02/24 04:03:08;;;;;;;8.60;6.80;;;;;;;;;;105177;1264;61497;-65
2023/02/24 04:05:57;;;;;;;8.30;6.50;;;;;;;;;;105744;1247;60792;-65
2023/02/24 04:08:28;;;;;;;8.40;6.30;;;;;;;;;;105046;1247;61323;-65
2023/02/24 04:11:04;;;;;;;9.40;6.80;;;;;;;;;;105405;1249;60754;-65
2023/02/24 04:13:37;;;;;;;7.30;6.60;;;;;;;;;;105461;1248;60866;-64
2023/02/24 04:16:26;;;;;;;8.30;6.70;;;;;;;;;;105391;1253;60862;-64
2023/02/24 04:19:02;;;;;;;9.70;7.30;;;;;;;;;;105319;1266;60751;-64
2023/02/24 04:21:32;;;;;;;8.60;6.60;;;;;;;;;;105369;1247;60857;-65
2023/02/24 04:24:10;;;;;;;9.20;7.10;;;;;;;;;;105250;1248;60854;-65
2023/02/24 04:26:41;;;;;;;10.00;7.40;;;;;;;;;;104855;1254;60738;-65
2023/02/24 04:29:16;;;;;;;8.30;6.60;;;;;;;;;;105396;1247;60926;-65
2023/02/24 04:31:46;;;;;;;9.00;7.40;;;;;;;;;;104951;1248;60959;-65
2023/02/24 04:34:18;;;;;;;8.90;6.90;;;;;;;;;;105123;1251;60932;-67
2023/02/24 04:36:48;;;;;;;9.20;7.50;;;;;;;;;;105331;1251;60744;-65
2023/02/24 04:39:18;;;;;;;7.70;6.80;;;;;;;;;;105401;1251;60836;-65
2023/02/24 04:41:50;;;;;;;9.40;7.40;;;;;;;;;;105124;1254;60879;-66
2023/02/24 04:44:19;;;;;;;9.40;7.10;;;;;;;;;;105450;1250;60880;-69
2023/02/24 04:46:48;;;;;;;8.90;7.20;;;;;;;;;;105333;1253;60890;-67
2023/02/24 04:49:18;;;;;;;8.00;6.50;;;;;;;;;;105412;1251;61221;-65
2023/02/24 04:51:46;;;;;;;8.20;6.50;;;;;;;;;;105479;1251;60863;-66
2023/02/24 04:54:16;;;;;;;10.20;6.60;;;;;;;;;;105396;1251;60764;-66
2023/02/24 04:56:49;;;;;;;8.50;6.90;;;;;;;;;;105332;1249;60882;-66
2023/02/24 04:59:19;;;;;;;7.40;6.30;;;;;;;;;;105498;1248;60921;-66
2023/02/24 05:01:50;;;;;;;8.50;6.60;;;;;;;;;;105475;1246;60857;-65
2023/02/24 05:04:19;;;;;;;10.70;6.50;;;;;;;;;;105360;1248;60894;-65
2023/02/24 05:06:48;;;;;;;8.10;7.20;;;;;;;;;;105294;1248;60870;-66
2023/02/24 05:09:16;;;;;;;9.30;7.40;;;;;;;;;;105408;1263;60895;-67
2023/02/24 05:11:47;;;;;;;8.20;6.50;;;;;;;;;;105328;1270;60901;-66
2023/02/24 05:14:17;;;;;;;12.70;7.20;;;;;;;;;;105365;1250;60796;-65
2023/02/24 05:16:46;;;;;;;8.80;7.00;;;;;;;;;;105498;1248;60879;-65
2023/02/24 05:22:03;;;;;;;;;;;;;;;;;;105369;1250;60879;-66
2023/02/24 05:24:32;;;;;;;7.30;6.50;;;;;;;;;;105395;1251;60728;-66
2023/02/24 05:27:02;;;;;;;7.80;5.80;;;;;;;;;;105472;1247;60851;-67
2023/02/24 05:29:31;;;;;;;6.80;6.10;;;;;;;;;;105476;1259;60859;-67
2023/02/24 05:32:01;;;;;;;10.00;6.80;;;;;;;;;;105391;1254;60891;-66
2023/02/24 05:34:30;;;;;;;7.20;6.50;;;;;;;;;;105560;1259;60870;-66
2023/02/24 05:36:58;;;;;;;10.30;6.60;;;;;;;;;;105454;1252;60855;-67
2023/02/24 05:39:27;;;;;;;9.20;6.60;;;;;;;;;;105529;1251;60754;-67
2023/02/24 05:41:56;;;;;;;7.40;5.80;;;;;;;;;;105306;1248;60857;-65
2023/02/24 05:44:25;;;;;;;7.30;6.50;;;;;;;;;;105303;1251;61431;-66
2023/02/24 05:46:57;;;;;;;8.50;6.20;;;;;;;;;;105387;1250;61337;-67
2023/02/24 05:49:30;;;;;;;6.80;6.00;;;;;;;;;;105428;1247;60892;-69
2023/02/24 05:51:59;;;;;;;6.30;5.70;;;;;;;;;;105392;1257;60751;-70
2023/02/24 05:54:31;;;;;;;8.80;5.90;;;;;;;;;;105661;1251;60793;-69
2023/02/24 05:57:03;;;;;;;7.40;6.10;;;;;;;;;;105529;1251;60866;-66
2023/02/24 05:59:31;;;;;;;9.90;6.20;;;;;;;;;;105463;1247;61276;-66
2023/02/24 06:02:13;;;;;;;10.60;6.80;;;;;;;;;;105353;1248;60848;-66
2023/02/24 06:04:49;;;;;;;9.50;6.60;;;;;;;;;;105499;1250;60818;-67
2023/02/24 06:07:18;;;;;;;7.70;6.10;;;;;;;;;;105292;1264;60783;-67
2023/02/24 06:09:49;;;;;;;9.40;6.80;;;;;;;;;;105546;1247;61455;-64
2023/02/24 06:12:19;;;;;;;7.20;6.50;;;;;;;;;;105670;1249;60790;-66
2023/02/24 06:14:48;;;;;;;9.90;6.70;;;;;;;;;;105329;1246;61451;-67
2023/02/24 06:17:18;;;;;;;7.80;6.30;;;;;;;;;;105375;1248;60889;-70
2023/02/24 06:19:48;;;;;;;7.10;6.00;;;;;;;;;;105298;1248;61238;-68
2023/02/24 06:22:18;;;;;;;8.50;5.40;;;;;;;;;;105276;1252;60866;-66
2023/02/24 06:24:48;;;;;;;7.60;6.00;;;;;;;;;;104797;1248;60881;-69
2023/02/24 06:27:17;;;;;;;9.10;6.60;;;;;;;;;;105546;1259;60847;-67
2023/02/24 06:29:51;;;;;;;8.10;6.20;;;;;;;;;;105517;1248;61225;-70
2023/02/24 06:32:23;;;;;;;10.30;6.00;;;;;;;;;;105467;1248;60841;-71
2023/02/24 06:34:53;;;;;;;7.20;6.40;;;;;;;;;;105615;1247;60885;-66
2023/02/24 06:37:22;;;;;;;8.20;6.30;;;;;;;;;;105524;1248;60907;-66
2023/02/24 06:39:51;;;;;;;8.90;6.20;;;;;;;;;;105400;1263;60860;-70
2023/02/24 06:42:20;;;;;;;9.30;6.50;;;;;;;;;;105104;1247;60824;-65
2023/02/24 06:44:49;;;;;;;7.30;6.30;;;;;;;;;;105426;1249;60854;-66
2023/02/24 06:47:18;;;;;;;8.10;6.30;;;;;;;;;;105566;1251;60860;-68
2023/02/24 06:49:47;;;;;;;8.30;6.80;;;;;;;;;;105525;1250;61235;-68
2023/02/24 06:52:17;;;;;;;9.80;7.30;;;;;;;;;;105480;1247;60838;-69
2023/02/24 06:54:47;;;;;;;8.10;6.80;;;;;;;;;;105112;1249;60960;-67
2023/02/24 06:57:16;;;;;;;7.20;5.80;;;;;;;;;;104953;1254;60966;-65
2023/02/24 06:59:44;;;;;;;9.20;6.20;;;;;;;;;;105487;1247;60898;-67
2023/02/24 07:02:16;;;;;;;7.90;6.30;;;;;;;;;;105431;1248;60783;-67
2023/02/24 07:04:46;;;;;;;8.00;6.10;;;;;;;;;;105380;1247;60846;-69
2023/02/24 07:07:16;;;;;;;7.90;6.40;;;;;;;;;;105256;1247;60826;-70
2023/02/24 07:09:48;;;;;;;11.00;7.50;;;;;;;;;;105293;1253;60850;-65
2023/02/24 07:12:19;;;;;;;9.40;6.60;;;;;;;;;;105494;1248;61589;-65
2023/02/24 07:14:49;;;;;;;8.60;6.10;;;;;;;;;;105423;1258;62133;-64
2023/02/24 07:17:19;;;;;;;7.80;6.30;;;;;;;;;;105583;1246;61727;-64
2023/02/24 07:19:48;;;;;;;7.30;6.20;;;;;;;;;;105826;1248;61682;-65
2023/02/24 07:22:23;;;;;;;9.00;6.80;;;;;;;;;;105675;1254;61593;-64
2023/02/24 07:24:59;;;;;;;8.60;6.70;;;;;;;;;;106080;1247;61682;-63
2023/02/24 07:27:29;;;;;;;7.10;6.10;;;;;;;;;;105692;1247;61086;-64
2023/02/24 07:29:58;;;;;;;9.70;6.70;;;;;;;;;;105852;1246;61582;-65
2023/02/24 07:32:27;;;;;;;8.20;6.60;;;;;;;;;;105993;1247;61709;-63
2023/02/24 07:34:55;;;;;;;9.70;7.10;;;;;;;;;;105619;1246;61632;-66
2023/02/24 07:37:24;;;;;;;9.00;6.60;;;;;;;;;;106081;1251;61509;-68
2023/02/24 07:39:52;;;;;;;9.00;6.40;;;;;;;;;;105918;1250;61679;-65
2023/02/24 07:42:21;;;;;;;8.30;6.80;;;;;;;;;;105478;1247;62717;-64
2023/02/24 07:44:53;;;;;;;13.70;7.40;;;;;;;;;;105640;1246;61673;-65
2023/02/24 07:47:25;;;;;;;8.60;6.40;;;;;;;;;;105619;1247;61660;-65
2023/02/24 07:49:54;;;;;;;8.60;6.60;;;;;;;;;;105777;1247;61647;-63
2023/02/24 07:52:23;;;;;;;12.40;8.40;;;;;;;;;;105305;1253;61695;-67
2023/02/24 07:54:51;;;;;;;10.60;7.70;;;;;;;;;;105512;1251;61665;-65
2023/02/24 07:57:23;;;;;;;12.10;7.10;;;;;;;;;;105494;1249;61703;-66
2023/02/24 07:59:53;;;;;;;8.60;6.70;;;;;;;;;;105374;1247;61625;-67
2023/02/24 08:02:22;;;;;;;11.20;7.40;;;;;;;;;;105261;1251;61817;-68
2023/02/24 08:04:50;;;;;;;10.40;6.60;;;;;;;;;;105314;1246;61622;-64
2023/02/24 08:07:23;;;;;;;9.70;7.00;;;;;;;;;;105235;1262;61667;-68
2023/02/24 08:10:09;;;;;;;8.60;6.20;;;;;;;;;;105451;1254;61688;-66
2023/02/24 08:12:43;;;;;;;11.10;7.30;;;;;;;;;;105278;1248;61739;-69
2023/02/24 08:15:22;;;;;;;8.60;7.00;;;;;;;;;;105365;1252;61705;-68
2023/02/24 08:17:53;;;;;;;8.70;6.20;;;;;;;;;;106028;1250;61669;-66
2023/02/24 08:20:24;;;;;;;8.00;6.30;;;;;;;;;;105714;1251;61648;-69
2023/02/24 08:22:52;;;;;;;9.40;7.10;;;;;;;;;;105437;1250;62795;-63
2023/02/24 08:25:34;;;;;;;9.40;6.80;;;;;;;;;;105772;1248;61924;-65
2023/02/24 08:28:04;;;;;;;10.80;7.40;;;;;;;;;;105248;1249;61579;-66
2023/02/24 08:30:38;;;;;;;7.30;6.20;;;;;;;;;;105408;1249;61686;-65
2023/02/24 08:33:09;;;;;;;9.00;6.70;;;;;;;;;;105623;1248;61554;-68
2023/02/24 08:35:43;;;;;;;9.80;7.00;;;;;;;;;;105744;1252;61682;-66
2023/02/24 08:38:13;;;;;;;7.80;6.10;;;;;;;;;;105982;1247;61905;-66
2023/02/24 08:40:50;;;;;;;10.20;7.90;;;;;;;;;;105970;1248;61661;-64
2023/02/24 08:43:18;;;;;;;9.40;7.40;;;;;;;;;;105904;1248;61695;-66
2023/02/24 08:45:50;;;;;;;9.10;6.80;;;;;;;;;;106131;1247;61602;-68
2023/02/24 08:48:25;;;;;;;11.30;7.20;;;;;;;;;;105931;1253;61592;-64
2023/02/24 08:50:54;;;;;;;8.30;6.60;;;;;;;;;;106019;1247;61735;-67
2023/02/24 08:53:30;;;;;;;8.50;6.30;;;;;;;;;;105114;1253;61757;-65
2023/02/24 08:56:08;;;;;;;10.50;7.30;;;;;;;;;;105717;1249;61689;-64
2023/02/24 08:58:39;;;;;;;10.20;6.70;;;;;;;;;;105953;1248;61578;-66
2023/02/24 09:01:17;;;;;;;10.30;7.80;;;;;;;;;;106039;1249;61806;-66
2023/02/24 09:03:48;;;;;;;9.10;7.00;;;;;;;;;;105916;1250;61711;-64
2023/02/24 09:06:24;;;;;;;10.20;7.30;;;;;;;;;;105302;1250;61688;-64
2023/02/24 09:11:45;;;;;;;9.30;7.40;;;;;;;;;;105315;1248;61586;-65
2023/02/24 09:14:15;;;;;;;7.40;6.30;;;;;;;;;;105389;1251;61695;-66
2023/02/24 09:17:01;;;;;;;8.00;5.80;;;;;;;;;;105741;1248;61762;-65
2023/02/24 09:22:30;;;;;;;9.10;7.20;;;;;;;;;;105760;1247;61702;-63
2023/02/24 09:25:39;;;;;;;16.70;10.30;;;;;;;;;;105599;1255;61675;-60
2023/02/24 09:28:15;;;;;;;14.10;9.60;;;;;;;;;;105844;1248;61638;-61
2023/02/24 09:30:52;;;;;;;15.40;10.30;;;;;;;;;;105588;1248;61634;-62
2023/02/24 09:33:22;;;;;;;18.30;16.60;;;;;;;;;;105440;1252;61778;-61
2023/02/24 09:36:08;;;;;;;14.80;13.30;;;;;;;;;;106013;1247;61644;-60
2023/02/24 09:41:52;;;;;;;14.60;12.60;;;;;;;;;;105418;1247;61701;-63
2023/02/24 09:44:22;;;;;;;17.80;15.90;;;;;;;;;;105784;1250;61616;-67
2023/02/24 09:47:12;;;;;;;14.80;11.70;;;;;;;;;;105375;1251;61596;-63
2023/02/24 09:49:57;;;;;;;10.50;8.50;;;;;;;;;;105198;1253;61689;-62
2023/02/24 09:52:42;;;;;;;12.90;8.40;;;;;;;;;;105591;1259;60692;-62
2023/02/24 09:55:25;;;;;;;12.40;7.30;;;;;;;;;;105246;1253;61035;-61
2023/02/24 09:58:46;;;;;;;12.90;10.90;;;;;;;;;;105484;1251;61688;-61
2023/02/24 10:01:20;;;;;;;12.50;9.50;;;;;;;;;;105445;1249;61257;-64
2023/02/24 10:04:04;;;;;;;17.00;9.60;;;;;;;;;;105506;1251;61110;-62
2023/02/24 10:06:47;;;;;;;25.20;18.50;;;;;;;;;;105399;1247;61679;-64
2023/02/24 10:09:15;;;;;;;20.10;14.70;;;;;;;;;;105281;1251;61680;-61
2023/02/24 10:11:53;;;;;;;22.70;14.40;;;;;;;;;;105416;1251;61579;-62
2023/02/24 10:14:43;;;;;;;36.30;18.80;;;;;;;;;;105320;1259;61794;-61
2023/02/24 10:17:22;;;;;;;31.70;20.30;;;;;;;;;;105152;1249;62048;-62
2023/02/24 10:19:58;;;;;;;37.60;21.10;;;;;;;;;;105450;1249;61707;-61
2023/02/24 10:22:33;;;;;;;35.20;19.60;;;;;;;;;;105979;1248;61599;-61
2023/02/24 10:25:12;;;;;;;35.70;19.80;;;;;;;;;;105456;1247;61691;-61
2023/02/24 10:27:56;;;;;;;27.30;17.40;;;;;;;;;;105315;1247;61715;-65
2023/02/24 10:30:45;;;;;;;32.50;18.40;;;;;;;;;;105520;1248;61688;-63
2023/02/24 10:33:19;;;;;;;78.30;32.30;;;;;;;;;;105826;1252;61666;-62
2023/02/24 10:35:53;;;;;;;81.20;31.90;;;;;;;;;;105426;1247;61656;-61
2023/02/24 10:38:22;;;;;;;84.80;34.50;;;;;;;;;;105758;1251;61665;-63
2023/02/24 10:40:56;;;;;;;70.00;32.50;;;;;;;;;;105831;1247;61616;-61
2023/02/24 10:43:32;;;;;;;50.20;25.10;;;;;;;;;;105905;1251;61710;-61
2023/02/24 10:46:15;;;;;;;27.90;15.70;;;;;;;;;;106041;1249;61705;-61
2023/02/24 10:48:59;;;;;;;28.20;15.70;;;;;;;;;;105445;1248;61682;-61
2023/02/24 10:51:31;;;;;;;18.90;12.60;;;;;;;;;;105899;1251;61606;-61
2023/02/24 10:54:32;;;;;;;20.60;13.60;;;;;;;;;;105511;1253;61762;-62
2023/02/24 10:57:16;;;;;;;15.70;10.60;;;;;;;;;;105606;1247;61699;-61
2023/02/24 11:00:18;;;;;;;13.20;8.70;;;;;;;;;;105585;1248;61586;-63
2023/02/24 11:03:05;;;;;;;11.20;8.00;;;;;;;;;;105465;1247;61640;-60
2023/02/24 11:05:42;;;;;;;12.10;7.90;;;;;;;;;;105471;1249;62159;-61
2023/02/24 11:11:24;;;;;;;8.70;6.90;;;;;;;;;;105744;1246;61687;-63
2023/02/24 11:19:43;;;;;;;14.60;7.20;;;;;;;;;;105749;1251;61700;-65
2023/02/24 11:22:16;;;;;;;10.10;7.00;;;;;;;;;;105541;1250;61583;-67
2023/02/24 11:24:45;;;;;;;8.60;6.40;;;;;;;;;;105646;1250;61583;-68
2023/02/24 11:27:16;;;;;;;10.20;7.30;;;;;;;;;;105402;1269;61691;-67
2023/02/24 11:30:05;;;;;;;9.00;6.80;;;;;;;;;;105396;1250;61683;-67
2023/02/24 11:32:33;;;;;;;;;;;;;;;;;;105594;1247;61701;-64
2023/02/24 11:35:11;;;;;;;8.50;7.00;;;;;;;;;;106089;1251;61705;-69
2023/02/24 11:37:41;;;;;;;9.00;7.10;;;;;;;;;;106312;1251;62049;-66
2023/02/24 11:40:14;;;;;;;7.80;6.30;;;;;;;;;;106119;1251;61603;-66
2023/02/24 11:42:45;;;;;;;8.70;6.50;;;;;;;;;;105295;1249;61664;-67
2023/02/24 11:45:17;;;;;;;10.20;7.20;;;;;;;;;;105795;1248;61683;-65
2023/02/24 11:47:49;;;;;;;8.40;6.90;;;;;;;;;;105281;1252;61619;-62
2023/02/24 11:50:24;;;;;;;11.00;8.10;;;;;;;;;;105397;1250;61669;-63
2023/02/24 11:52:53;;;;;;;11.50;8.00;;;;;;;;;;105517;1256;60675;-62
2023/02/24 11:55:27;;;;;;;12.60;10.20;;;;;;;;;;105214;1265;61403;-63
2023/02/24 11:57:55;;;;;;;18.40;13.50;;;;;;;;;;105189;1249;61702;-63
2023/02/24 12:00:26;;;;;;;16.00;12.30;;;;;;;;;;105299;1246;61715;-63
2023/02/24 12:03:14;;;;;;;18.10;13.20;;;;;;;;;;105246;1256;62140;-64
2023/02/24 12:05:46;;;;;;;16.50;12.00;;;;;;;;;;105408;1247;61599;-62
2023/02/24 12:08:24;;;;;;;15.50;11.70;;;;;;;;;;105234;1247;61723;-62
2023/02/24 12:11:14;;;;;;;16.50;11.00;;;;;;;;;;105872;1247;61557;-65
2023/02/24 12:13:52;;;;;;;24.60;14.20;;;;;;;;;;105332;1267;61778;-63
2023/02/24 12:16:22;;;;;;;24.40;13.80;;;;;;;;;;105549;1251;61548;-63
2023/02/24 12:18:55;;;;;;;17.10;12.10;;;;;;;;;;105455;1250;61086;-63
2023/02/24 12:21:29;;;;;;;21.40;13.30;;;;;;;;;;105594;1251;61656;-62
2023/02/24 12:23:57;;;;;;;24.40;14.00;;;;;;;;;;105471;1251;61608;-65
2023/02/24 12:26:29;;;;;;;20.90;13.50;;;;;;;;;;105317;1258;61685;-62
2023/02/24 12:28:57;;;;;;;13.30;10.10;;;;;;;;;;105452;1250;61778;-63
2023/02/24 12:31:36;;;;;;;14.10;9.50;;;;;;;;;;105575;1251;60698;-62
2023/02/24 12:34:10;;;;;;;11.70;8.60;;;;;;;;;;105460;1248;61689;-63
2023/02/24 12:36:45;;;;;;;14.30;9.80;;;;;;;;;;105342;1247;61688;-64
2023/02/24 12:39:15;;;;;;;11.70;8.50;;;;;;;;;;105214;1249;61704;-62
2023/02/24 12:41:44;;;;;;;11.10;8.50;;;;;;;;;;105614;1250;61650;-65
2023/02/24 12:44:33;;;;;;;15.00;9.30;;;;;;;;;;105511;1247;61696;-66
2023/02/24 12:47:08;;;;;;;12.80;8.30;;;;;;;;;;105396;1250;61677;-63
2023/02/24 12:49:36;;;;;;;14.10;9.10;;;;;;;;;;105426;1259;61708;-63
2023/02/24 12:52:06;;;;;;;11.40;8.90;;;;;;;;;;105802;1248;61676;-62
2023/02/24 12:54:45;;;;;;;11.40;8.70;;;;;;;;;;105476;1247;61685;-61
2023/02/24 12:57:26;;;;;;;8.60;7.10;;;;;;;;;;105627;1247;61647;-62
2023/02/24 12:59:55;;;;;;;10.40;7.60;;;;;;;;;;105455;1251;61627;-62
2023/02/24 13:02:37;;;;;;;11.30;8.60;;;;;;;;;;105471;1247;61707;-63
2023/02/24 13:05:31;;;;;;;12.70;8.80;;;;;;;;;;105470;1259;61843;-61
2023/02/24 13:08:00;;;;;;;11.40;8.00;;;;;;;;;;105523;1267;61644;-63
2023/02/24 13:10:31;;;;;;;12.60;9.10;;;;;;;;;;105499;1251;61790;-63
2023/02/24 13:13:05;;;;;;;9.60;7.80;;;;;;;;;;105370;1247;61727;-62
2023/02/24 13:15:34;;;;;;;10.80;8.70;;;;;;;;;;105554;1247;61660;-64
2023/02/24 13:18:08;;;;;;;10.30;8.60;;;;;;;;;;105768;1251;61678;-64
2023/02/24 13:20:37;;;;;;;10.00;8.10;;;;;;;;;;105852;1248;61606;-62
2023/02/24 13:23:18;;;;;;;9.60;7.30;;;;;;;;;;105139;1252;61601;-62
2023/02/24 13:25:50;;;;;;;9.80;7.60;;;;;;;;;;105594;1250;61666;-62
2023/02/24 13:28:24;;;;;;;8.60;7.10;;;;;;;;;;105537;1247;61613;-61
2023/02/24 13:30:59;;;;;;;10.60;7.90;;;;;;;;;;105658;1251;61603;-61
2023/02/24 13:33:29;;;;;;;16.90;10.20;;;;;;;;;;105993;1250;61696;-61
2023/02/24 13:36:14;;;;;;;18.50;12.60;;;;;;;;;;105754;1247;61593;-61
2023/02/24 13:38:45;;;;;;;23.60;15.20;;;;;;;;;;105466;1247;61682;-61
2023/02/24 13:41:22;;;;;;;22.60;15.20;;;;;;;;;;105492;1253;61772;-62
2023/02/24 13:43:56;;;;;;;17.80;12.70;;;;;;;;;;105606;1251;62056;-70
2023/02/24 13:46:27;;;;;;;18.20;12.20;;;;;;;;;;105686;1250;61716;-70
2023/02/24 13:49:17;;;;;;;17.30;12.00;;;;;;;;;;105880;1247;61680;-70
2023/02/24 13:51:48;;;;;;;23.70;13.50;;;;;;;;;;105802;1251;61636;-69
2023/02/24 13:54:35;;;;;;;27.40;15.00;;;;;;;;;;105455;1252;61064;-66
2023/02/24 13:57:22;;;;;;;26.50;15.50;;;;;;;;;;105452;1247;61688;-66
2023/02/24 13:59:53;;;;;;;23.30;13.50;;;;;;;;;;105508;1251;61637;-63
2023/02/24 14:02:26;;;;;;;19.00;11.80;;;;;;;;;;105481;1253;61591;-61
2023/02/24 14:04:55;;;;;;;14.30;9.80;;;;;;;;;;105371;1247;61788;-62
2023/02/24 14:07:28;;;;;;;14.60;9.10;;;;;;;;;;105408;1250;61692;-62
2023/02/24 14:10:19;;;;;;;10.80;9.60;;;;;;;;;;105457;1248;61679;-62
2023/02/24 14:12:47;;;;;;;11.40;8.30;;;;;;;;;;105376;1247;61615;-62
2023/02/24 14:15:22;;;;;;;11.20;8.10;;;;;;;;;;105165;1252;61670;-61
2023/02/24 14:17:58;;;;;;;9.10;7.60;;;;;;;;;;105723;1250;61730;-65
2023/02/24 14:20:27;;;;;;;9.70;8.10;;;;;;;;;;105386;1251;61593;-63
2023/02/24 14:22:57;;;;;;;8.10;7.20;;;;;;;;;;105435;1247;61840;-63
2023/02/24 14:25:29;;;;;;;8.80;7.90;;;;;;;;;;105464;1248;61698;-62
2023/02/24 14:27:58;;;;;;;10.90;8.10;;;;;;;;;;105430;1248;61593;-62
2023/02/24 14:30:27;;;;;;;9.20;7.00;;;;;;;;;;105431;1251;61679;-62
2023/02/24 14:32:56;;;;;;;8.30;6.80;;;;;;;;;;105602;1247;61686;-67
2023/02/24 14:35:29;;;;;;;7.70;6.90;;;;;;;;;;105422;1257;61704;-61
2023/02/24 14:37:58;;;;;;;9.30;6.80;;;;;;;;;;105855;1247;61689;-63
2023/02/24 14:40:30;;;;;;;8.30;7.50;;;;;;;;;;105418;1252;61593;-60
2023/02/24 14:42:59;;;;;;;7.20;6.30;;;;;;;;;;105289;1247;61672;-61
2023/02/24 14:45:28;;;;;;;9.20;7.30;;;;;;;;;;105385;1259;61679;-61
2023/02/24 14:47:56;;;;;;;7.90;6.80;;;;;;;;;;105319;1253;61768;-60
2023/02/24 14:50:28;;;;;;;9.60;6.50;;;;;;;;;;105596;1247;61580;-62
2023/02/24 14:53:02;;;;;;;8.50;7.40;;;;;;;;;;105345;1248;61670;-61
2023/02/24 14:55:31;;;;;;;9.40;7.00;;;;;;;;;;105470;1251;62264;-62
2023/02/24 14:58:16;;;;;;;7.30;6.60;;;;;;;;;;105425;1252;61565;-70
2023/02/24 15:00:49;;;;;;;8.70;6.20;;;;;;;;;;107659;1247;61577;-70
2023/02/24 15:03:22;;;;;;;8.40;6.10;;;;;;;;;;105806;1248;61644;-68
2023/02/24 15:05:51;;;;;;;8.00;6.90;;;;;;;;;;105892;1252;61439;-69
2023/02/24 15:08:22;;;;;;;7.40;6.50;;;;;;;;;;105710;1247;61638;-70
2023/02/24 15:10:54;;;;;;;9.00;7.00;;;;;;;;;;105454;1247;390126;-70
2023/02/24 15:15:05;;;;;;;7.40;6.50;;;;;;;;;;102115;1292;602576;-69
2023/02/24 15:17:32;;;;;;;9.30;6.40;;;;;;;;;;104279;1266;60143;-72
2023/02/24 15:19:59;;;;;;;8.90;7.20;;;;;;;;;;104329;1266;60264;-72
2023/02/24 15:22:32;;;;;;;8.10;6.70;;;;;;;;;;104186;1273;60219;-70
2023/02/24 15:25:08;;;;;;;8.10;6.40;;;;;;;;;;104298;1263;60176;-66
2023/02/24 15:27:35;;;;;;;9.90;6.50;;;;;;;;;;104176;1267;178996;-74